Time;durP1;ratioP1;P1;durP2;ratioP2;P2;SDS_P1;SDS_P2;PMS_P1;PMS_P2;Temp;Humidity;BMP_temperature;BMP_pressure;BME280_temperature;BME280_humidity;BME280_pressure;Samples;Min_cycle;Max_cycle;Signal;HPM_P1;HPM_P2
2022/12/05 00:00:33;;;;;;;41.25;22.30;;;4.40;99.90;;;;;;5026809;28;20591;-58
2022/12/05 00:03:03;;;;;;;37.20;21.45;;;4.40;99.90;;;;;;5026347;28;20041;-58
2022/12/05 00:05:28;;;;;;;41.17;22.38;;;4.40;99.90;;;;;;5026911;28;20068;-58
2022/12/05 00:07:54;;;;;;;40.35;21.35;;;4.40;99.90;;;;;;5026868;28;20664;-57
2022/12/05 00:10:23;;;;;;;42.42;22.25;;;4.40;99.90;;;;;;5026550;28;20524;-56
2022/12/05 00:12:48;;;;;;;38.42;21.42;;;4.40;99.90;;;;;;5026447;28;20144;-57
2022/12/05 00:15:14;;;;;;;39.30;21.38;;;4.40;99.90;;;;;;5026150;28;20041;-57
2022/12/05 00:17:40;;;;;;;38.75;21.92;;;4.40;99.90;;;;;;5024847;28;20057;-57
2022/12/05 00:20:07;;;;;;;42.17;21.77;;;4.50;99.90;;;;;;5025948;28;20151;-58
2022/12/05 00:22:36;;;;;;;40.13;22.30;;;4.50;99.90;;;;;;5041931;28;20433;-56
2022/12/05 00:25:02;;;;;;;40.20;22.88;;;4.50;99.90;;;;;;5026474;28;20037;-57
2022/12/05 00:27:27;;;;;;;43.20;23.48;;;4.50;99.90;;;;;;5022563;28;20050;-57
2022/12/05 00:29:53;;;;;;;44.97;23.52;;;4.50;99.90;;;;;;5017962;28;20103;-56
2022/12/05 00:32:19;;;;;;;44.70;23.85;;;4.60;99.90;;;;;;5025407;28;20103;-56
2022/12/05 00:34:44;;;;;;;40.75;22.77;;;4.60;99.90;;;;;;5026222;28;20782;-57
2022/12/05 00:37:10;;;;;;;44.45;23.50;;;4.60;99.90;;;;;;5026422;28;20037;-57
2022/12/05 00:39:35;;;;;;;51.40;25.45;;;4.60;99.90;;;;;;5026134;28;20075;-57
2022/12/05 00:42:01;;;;;;;44.90;23.88;;;4.60;99.90;;;;;;5026580;28;20048;-58
2022/12/05 00:44:26;;;;;;;49.10;24.75;;;4.70;99.90;;;;;;5025548;28;20140;-57
2022/12/05 00:46:52;;;;;;;48.17;25.02;;;4.70;99.90;;;;;;5024787;28;20045;-57
2022/12/05 00:49:17;;;;;;;50.70;25.95;;;4.70;99.90;;;;;;5025183;28;20037;-56
2022/12/05 00:51:43;;;;;;;46.90;25.45;;;4.70;99.90;;;;;;5025775;28;20161;-57
2022/12/05 00:54:14;;;;;;;47.55;25.63;;;4.70;99.90;;;;;;5026330;28;20529;-55
2022/12/05 00:56:40;;;;;;;49.17;26.13;;;4.70;99.90;;;;;;5025785;28;20041;-56
2022/12/05 00:59:06;;;;;;;48.00;25.90;;;4.70;99.90;;;;;;5025474;28;20111;-56
2022/12/05 01:01:38;;;;;;;50.00;24.67;;;4.70;99.90;;;;;;5025450;28;20037;-57
2022/12/05 01:04:09;;;;;;;49.85;25.30;;;4.70;99.90;;;;;;5025157;28;20062;-56
2022/12/05 01:06:34;;;;;;;46.97;24.70;;;4.70;99.90;;;;;;5024877;28;20683;-57
2022/12/05 01:09:01;;;;;;;46.53;25.20;;;4.70;99.90;;;;;;5024618;28;20103;-53
2022/12/05 01:11:27;;;;;;;51.75;26.85;;;4.70;99.90;;;;;;5025391;28;20049;-56
2022/12/05 01:13:53;;;;;;;47.47;26.92;;;4.70;99.90;;;;;;5024814;28;20394;-56
2022/12/05 01:16:23;;;;;;;52.67;26.30;;;4.70;99.90;;;;;;5025148;28;20076;-57
2022/12/05 01:18:48;;;;;;;50.03;26.73;;;4.70;99.90;;;;;;5024737;28;20042;-57
2022/12/05 01:21:14;;;;;;;48.58;26.80;;;4.70;99.90;;;;;;5024947;28;20119;-56
2022/12/05 01:23:40;;;;;;;54.15;25.45;;;4.70;99.90;;;;;;5025320;28;20077;-57
2022/12/05 01:26:07;;;;;;;53.05;26.52;;;4.70;99.90;;;;;;5024897;28;20037;-57
2022/12/05 01:28:34;;;;;;;53.83;27.17;;;4.70;99.90;;;;;;5025144;28;20406;-56
2022/12/05 01:31:08;;;;;;;53.58;26.92;;;4.70;99.90;;;;;;5024736;28;20038;-57
2022/12/05 01:33:34;;;;;;;55.17;27.38;;;4.70;99.90;;;;;;5024821;28;20737;-56
2022/12/05 01:36:00;;;;;;;55.20;27.25;;;4.70;99.90;;;;;;5024798;28;20041;-56
2022/12/05 01:38:26;;;;;;;54.40;27.83;;;4.80;99.90;;;;;;5024703;28;20060;-56
2022/12/05 01:41:03;;;;;;;53.10;27.30;;;4.70;99.90;;;;;;5024879;28;20190;-57
2022/12/05 01:43:29;;;;;;;49.42;27.05;;;4.80;99.90;;;;;;5023604;28;20041;-57
2022/12/05 01:45:55;;;;;;;52.67;27.02;;;4.80;99.90;;;;;;5024727;28;20107;-56
2022/12/05 01:48:25;;;;;;;50.85;26.67;;;4.80;99.90;;;;;;5024415;28;20045;-56
2022/12/05 01:50:52;;;;;;;46.25;25.38;;;4.80;99.90;;;;;;5023850;28;20175;-58
2022/12/05 01:53:18;;;;;;;50.20;26.27;;;4.80;99.90;;;;;;5024914;28;20679;-56
2022/12/05 01:55:46;;;;;;;48.90;25.17;;;4.80;99.90;;;;;;5025210;28;20732;-58
2022/12/05 01:58:11;;;;;;;45.35;25.42;;;4.90;99.90;;;;;;5039714;28;20048;-56
2022/12/05 02:00:39;;;;;;;48.65;24.80;;;4.90;99.90;;;;;;5023739;28;20392;-57
2022/12/05 02:03:08;;;;;;;46.85;24.15;;;4.90;99.90;;;;;;5024302;28;20041;-56
2022/12/05 02:05:35;;;;;;;41.38;22.73;;;4.90;99.90;;;;;;5023412;28;20053;-58
2022/12/05 02:08:05;;;;;;;44.13;22.77;;;4.90;99.90;;;;;;5024579;28;20084;-56
2022/12/05 02:10:36;;;;;;;39.67;22.17;;;4.90;99.90;;;;;;5024460;28;20484;-56
2022/12/05 02:13:29;;;;;;;37.13;21.35;;;5.00;99.90;;;;;;5024314;28;20060;-54
2022/12/05 02:16:22;;;;;;;36.05;19.58;;;5.00;99.90;;;;;;5003486;28;20488;-58
2022/12/05 02:19:24;;;;;;;36.00;20.50;;;5.00;99.90;;;;;;5020326;28;20136;-56
2022/12/05 02:22:05;;;;;;;33.03;19.25;;;5.00;99.90;;;;;;5022076;28;20143;-56
2022/12/05 02:24:33;;;;;;;34.30;19.90;;;5.10;99.90;;;;;;5024497;28;20516;-56
2022/12/05 02:27:38;;;;;;;31.85;17.77;;;5.10;99.90;;;;;;5025035;28;20045;-57
2022/12/05 02:30:10;;;;;;;30.38;18.20;;;5.10;99.90;;;;;;5006306;28;20432;-56
2022/12/05 02:33:00;;;;;;;29.40;17.58;;;5.10;99.90;;;;;;5023578;28;20038;-56
2022/12/05 02:35:34;;;;;;;34.97;18.63;;;5.10;99.90;;;;;;5037160;28;20042;-56
2022/12/05 02:38:42;;;;;;;28.83;17.80;;;5.10;99.90;;;;;;5023645;28;20683;-54
2022/12/05 02:41:29;;;;;;;33.28;18.65;;;5.10;99.90;;;;;;5009723;28;20091;-54
2022/12/05 02:44:10;;;;;;;30.80;18.13;;;5.10;99.90;;;;;;5023282;28;20131;-56
2022/12/05 02:46:39;;;;;;;32.75;17.88;;;5.10;99.90;;;;;;5021219;28;20049;-57
2022/12/05 02:49:08;;;;;;;33.05;18.52;;;5.00;99.90;;;;;;5022334;28;20052;-55
2022/12/05 02:51:39;;;;;;;32.20;17.35;;;5.00;99.90;;;;;;5020114;28;20086;-54
2022/12/05 02:54:09;;;;;;;35.42;18.85;;;5.00;99.90;;;;;;5023326;28;20055;-57
2022/12/05 02:56:35;;;;;;;31.38;17.63;;;5.00;99.90;;;;;;5024153;28;20038;-55
2022/12/05 02:59:02;;;;;;;31.48;18.48;;;5.00;99.90;;;;;;5023233;28;20041;-54
2022/12/05 03:01:30;;;;;;;30.67;17.48;;;5.00;99.90;;;;;;5023655;28;20455;-57
2022/12/05 03:03:58;;;;;;;29.50;17.30;;;5.00;99.90;;;;;;5023464;28;20037;-55
2022/12/05 03:06:29;;;;;;;27.45;16.98;;;5.00;99.90;;;;;;5023226;28;20491;-54
2022/12/05 03:09:03;;;;;;;28.65;16.42;;;5.00;99.90;;;;;;5024353;28;20041;-56
2022/12/05 03:11:37;;;;;;;27.15;17.05;;;5.00;99.90;;;;;;5004406;28;20459;-58
2022/12/05 03:14:06;;;;;;;31.42;17.35;;;5.00;99.90;;;;;;5004851;28;20046;-57
2022/12/05 03:16:37;;;;;;;27.60;15.68;;;5.00;99.90;;;;;;5017926;28;20635;-57
2022/12/05 03:19:13;;;;;;;26.25;15.60;;;5.00;99.90;;;;;;5023685;28;20092;-56
2022/12/05 03:21:48;;;;;;;23.83;15.23;;;5.00;99.90;;;;;;5023423;28;20386;-60
2022/12/05 03:24:14;;;;;;;26.42;15.43;;;5.00;99.90;;;;;;5023287;28;20069;-55
2022/12/05 03:27:04;;;;;;;30.73;17.02;;;5.00;99.90;;;;;;5023947;28;20037;-56
2022/12/05 03:29:39;;;;;;;26.27;16.73;;;5.00;99.90;;;;;;5023892;28;20064;-57
2022/12/05 03:32:46;;;;;;;24.73;15.40;;;5.00;99.90;;;;;;5022228;28;20052;-55
2022/12/05 03:35:37;;;;;;;28.08;16.83;;;5.00;99.90;;;;;;5020897;28;20053;-55
2022/12/05 03:38:22;;;;;;;27.55;15.43;;;5.00;99.90;;;;;;5003670;28;20147;-56
2022/12/05 03:41:06;;;;;;;29.00;17.13;;;5.00;99.90;;;;;;5023102;28;20480;-56
2022/12/05 03:43:52;;;;;;;27.40;15.80;;;5.00;99.90;;;;;;5023794;28;20251;-55
2022/12/05 03:46:26;;;;;;;27.60;14.70;;;5.00;99.90;;;;;;5023383;28;20302;-55
2022/12/05 03:49:00;;;;;;;;;;;5.00;99.90;;;;;;5023042;28;20049;-56
2022/12/05 03:51:33;;;;;;;28.48;14.80;;;5.00;99.90;;;;;;5021687;28;19921;-57
2022/12/05 03:54:07;;;;;;;23.63;13.95;;;5.00;99.90;;;;;;5022769;28;20052;-54
2022/12/05 03:56:39;;;;;;;;;;;5.00;99.90;;;;;;5024159;28;20519;-56
2022/12/05 03:59:17;;;;;;;23.83;13.60;;;5.00;99.90;;;;;;5023052;28;20019;-56
2022/12/05 04:01:45;;;;;;;22.55;13.73;;;5.00;99.90;;;;;;5022759;28;20119;-57
2022/12/05 04:04:17;;;;;;;24.13;13.70;;;5.00;99.90;;;;;;5022824;28;20041;-57
2022/12/05 04:06:47;;;;;;;24.02;14.93;;;5.00;99.90;;;;;;5024672;28;20123;-55
2022/12/05 04:09:20;;;;;;;23.55;13.70;;;5.00;99.90;;;;;;5025714;28;20064;-55
2022/12/05 04:11:52;;;;;;;27.30;14.32;;;4.90;99.90;;;;;;5026373;28;20492;-57
2022/12/05 04:14:43;;;;;;;22.58;13.45;;;5.00;99.90;;;;;;5026741;28;20099;-57
2022/12/05 04:17:19;;;;;;;26.23;14.25;;;5.00;99.90;;;;;;5024867;28;20061;-55
2022/12/05 04:23:06;;;;;;;25.25;14.20;;;5.00;99.90;;;;;;5009791;28;20049;-55
2022/12/05 04:25:45;;;;;;;24.38;14.15;;;5.00;99.90;;;;;;5025037;28;20314;-56
2022/12/05 04:28:25;;;;;;;27.25;14.63;;;5.00;99.90;;;;;;5025446;28;20629;-56
2022/12/05 04:31:00;;;;;;;21.73;12.68;;;5.00;99.90;;;;;;5025759;28;20033;-55
2022/12/05 04:33:44;;;;;;;27.42;14.25;;;4.90;99.90;;;;;;5026093;28;20289;-55
2022/12/05 04:36:15;;;;;;;22.58;13.23;;;4.90;99.90;;;;;;5022995;28;20060;-56
2022/12/05 04:38:58;;;;;;;24.80;13.50;;;4.90;99.90;;;;;;5040892;28;20080;-55
2022/12/05 04:41:49;;;;;;;23.77;12.50;;;4.90;99.90;;;;;;5006949;28;20038;-56
2022/12/05 04:44:18;;;;;;;24.75;13.23;;;5.00;99.90;;;;;;5005916;28;20124;-56
2022/12/05 04:46:45;;;;;;;23.75;11.95;;;5.00;99.90;;;;;;5021362;28;20045;-57
2022/12/05 04:49:16;;;;;;;21.75;12.80;;;5.00;99.90;;;;;;5025847;28;20148;-57
2022/12/05 04:51:43;;;;;;;31.55;13.15;;;5.00;99.90;;;;;;5025489;28;20049;-57
2022/12/05 04:54:17;;;;;;;20.65;11.63;;;5.00;99.90;;;;;;5025527;28;20055;-58
2022/12/05 04:56:47;;;;;;;22.33;12.30;;;5.00;99.90;;;;;;5026328;28;20048;-56
2022/12/05 04:59:12;;;;;;;24.23;12.95;;;5.00;99.90;;;;;;5025375;28;20124;-57
2022/12/05 05:01:48;;;;;;;20.85;12.15;;;5.00;99.90;;;;;;5025080;28;20117;-58
2022/12/05 05:04:30;;;;;;;26.25;13.00;;;5.00;99.90;;;;;;5025475;28;20037;-57
2022/12/05 05:06:56;;;;;;;24.58;13.50;;;5.00;99.90;;;;;;5006038;28;20050;-57
2022/12/05 05:09:21;;;;;;;24.88;13.82;;;5.00;99.90;;;;;;5009478;28;20036;-59
2022/12/05 05:11:47;;;;;;;24.77;12.70;;;5.00;99.90;;;;;;5026123;28;20468;-55
2022/12/05 05:14:13;;;;;;;26.58;13.27;;;5.00;99.90;;;;;;5025458;28;20046;-58
2022/12/05 05:16:40;;;;;;;24.70;12.70;;;5.00;99.90;;;;;;5025121;28;20129;-58
2022/12/05 05:19:07;;;;;;;25.65;13.32;;;5.00;99.90;;;;;;5025301;28;20060;-58
2022/12/05 05:21:36;;;;;;;23.50;13.32;;;5.00;99.90;;;;;;5024989;28;20036;-57
2022/12/05 05:24:03;;;;;;;27.05;13.55;;;5.00;99.90;;;;;;5025450;28;20669;-56
2022/12/05 05:26:29;;;;;;;23.80;12.30;;;5.00;99.90;;;;;;5025860;28;20052;-58
2022/12/05 05:28:58;;;;;;;24.25;13.18;;;5.00;99.90;;;;;;5025256;28;20055;-57
2022/12/05 05:31:24;;;;;;;25.73;13.75;;;5.00;99.90;;;;;;5024914;28;20461;-58
2022/12/05 05:33:51;;;;;;;22.38;12.85;;;5.00;99.90;;;;;;5024786;28;20515;-58
2022/12/05 05:36:18;;;;;;;22.60;12.98;;;5.00;99.90;;;;;;5024799;28;20144;-57
2022/12/05 05:38:46;;;;;;;22.88;13.27;;;5.00;99.90;;;;;;5025573;28;20101;-58
2022/12/05 05:41:18;;;;;;;23.25;13.05;;;5.00;99.90;;;;;;5025278;28;20129;-59
2022/12/05 05:43:44;;;;;;;24.65;13.57;;;5.00;99.90;;;;;;5024563;28;20076;-58
2022/12/05 05:46:11;;;;;;;24.45;13.43;;;5.00;99.90;;;;;;5024401;28;20120;-56
2022/12/05 05:48:36;;;;;;;21.75;12.00;;;5.00;99.90;;;;;;5024471;28;20306;-57
2022/12/05 05:51:04;;;;;;;21.27;12.18;;;5.00;99.90;;;;;;5024356;28;20046;-57
2022/12/05 05:53:29;;;;;;;23.20;12.00;;;5.00;99.90;;;;;;5024061;28;20103;-58
2022/12/05 05:55:55;;;;;;;22.40;12.05;;;5.00;99.90;;;;;;5023300;28;20432;-56
2022/12/05 05:58:21;;;;;;;21.88;11.25;;;5.00;99.90;;;;;;5025059;28;20057;-58
2022/12/05 06:00:46;;;;;;;21.80;11.43;;;5.10;99.90;;;;;;5024493;28;20043;-58
2022/12/05 06:03:12;;;;;;;19.45;11.65;;;5.00;99.90;;;;;;5024313;28;20553;-58
2022/12/05 06:05:37;;;;;;;21.80;11.32;;;5.10;99.90;;;;;;5024173;28;20119;-57
2022/12/05 06:08:03;;;;;;;24.85;10.70;;;5.00;99.90;;;;;;5025045;28;20051;-57
2022/12/05 06:10:29;;;;;;;19.50;10.07;;;5.00;99.90;;;;;;5024197;28;20053;-57
2022/12/05 06:12:59;;;;;;;19.83;11.30;;;5.00;99.90;;;;;;5024817;28;20042;-55
2022/12/05 06:15:25;;;;;;;19.42;11.73;;;5.00;99.90;;;;;;5023471;28;20548;-59
2022/12/05 06:17:50;;;;;;;19.10;11.32;;;5.00;99.90;;;;;;5024060;28;20152;-58
2022/12/05 06:20:16;;;;;;;22.73;11.55;;;5.00;99.90;;;;;;5017943;28;20068;-57
2022/12/05 06:22:42;;;;;;;21.80;11.05;;;5.10;99.90;;;;;;5024434;28;20037;-57
2022/12/05 06:25:08;;;;;;;24.38;11.93;;;5.00;99.90;;;;;;5022924;28;20076;-59
2022/12/05 06:27:34;;;;;;;20.13;11.27;;;5.10;99.90;;;;;;5024315;28;20059;-58
2022/12/05 06:29:59;;;;;;;23.50;11.63;;;5.00;99.90;;;;;;5022956;28;20120;-58
2022/12/05 06:32:27;;;;;;;23.95;12.85;;;5.10;99.90;;;;;;5021753;28;20683;-57
2022/12/05 06:34:53;;;;;;;19.42;10.98;;;5.00;99.90;;;;;;5023447;28;20042;-58
2022/12/05 06:37:18;;;;;;;23.65;12.70;;;5.10;99.90;;;;;;5018280;28;20048;-56
2022/12/05 06:39:44;;;;;;;23.05;11.85;;;5.10;99.90;;;;;;5015652;28;20050;-57
2022/12/05 06:42:09;;;;;;;19.48;11.75;;;5.10;99.90;;;;;;5022314;28;20069;-58
2022/12/05 06:44:35;;;;;;;21.70;11.82;;;5.10;99.90;;;;;;5024149;28;20515;-59
2022/12/05 06:47:01;;;;;;;23.33;11.48;;;5.10;99.90;;;;;;5021259;28;20125;-58
2022/12/05 06:49:31;;;;;;;21.98;12.32;;;5.10;99.90;;;;;;5023130;28;20115;-57
2022/12/05 06:51:58;;;;;;;27.20;12.52;;;5.10;99.90;;;;;;5020668;28;20124;-58
2022/12/05 06:54:23;;;;;;;26.17;11.95;;;5.10;99.90;;;;;;5022248;28;20120;-57
2022/12/05 06:56:49;;;;;;;29.38;12.30;;;5.10;99.90;;;;;;5021690;28;20148;-58
2022/12/05 06:59:14;;;;;;;27.27;13.95;;;5.10;99.90;;;;;;5021498;28;20099;-56
2022/12/05 07:01:45;;;;;;;21.23;11.55;;;5.10;99.90;;;;;;5019962;28;20048;-57
2022/12/05 07:04:20;;;;;;;26.55;12.48;;;5.10;99.90;;;;;;5021709;28;20045;-58
2022/12/05 07:06:48;;;;;;;27.63;12.23;;;5.10;99.90;;;;;;5021810;28;20537;-58
2022/12/05 07:09:14;;;;;;;26.10;13.15;;;5.10;99.90;;;;;;5035257;28;20689;-58
2022/12/05 07:11:39;;;;;;;26.38;12.60;;;5.10;99.90;;;;;;5023571;28;20743;-59
2022/12/05 07:14:05;;;;;;;24.60;12.48;;;5.10;99.90;;;;;;5022882;28;20080;-57
2022/12/05 07:16:31;;;;;;;24.73;11.88;;;5.10;99.90;;;;;;5022730;28;20120;-58
2022/12/05 07:18:57;;;;;;;29.00;13.30;;;5.10;99.90;;;;;;5022675;28;20487;-57
2022/12/05 07:21:23;;;;;;;26.85;11.73;;;5.10;99.90;;;;;;5022001;28;20045;-57
2022/12/05 07:23:49;;;;;;;26.17;13.35;;;5.10;99.90;;;;;;5023557;28;20432;-58
2022/12/05 07:26:21;;;;;;;30.23;13.30;;;5.10;99.90;;;;;;5023620;28;20056;-58
2022/12/05 07:28:47;;;;;;;23.60;13.25;;;5.00;99.90;;;;;;5022553;28;20128;-58
2022/12/05 07:31:16;;;;;;;28.77;14.25;;;5.00;99.90;;;;;;5022743;28;20118;-57
2022/12/05 07:33:42;;;;;;;29.52;12.60;;;5.00;99.90;;;;;;5022668;28;20155;-58
2022/12/05 07:36:14;;;;;;;30.63;14.23;;;5.00;99.90;;;;;;5021009;28;20060;-59
2022/12/05 07:38:40;;;;;;;26.83;13.95;;;5.00;99.90;;;;;;5023023;28;20052;-59
2022/12/05 07:41:10;;;;;;;34.95;14.85;;;5.10;99.90;;;;;;5020332;28;20437;-58
2022/12/05 07:43:35;;;;;;;27.58;14.38;;;5.10;99.90;;;;;;5027059;28;20052;-56
2022/12/05 07:46:05;;;;;;;29.10;14.20;;;5.10;99.90;;;;;;5025868;28;20041;-59
2022/12/05 07:48:31;;;;;;;35.70;15.05;;;5.10;99.90;;;;;;5025941;28;20484;-57
2022/12/05 07:51:02;;;;;;;28.58;13.88;;;5.10;99.90;;;;;;5025430;28;20053;-60
2022/12/05 07:53:29;;;;;;;27.02;13.13;;;5.10;99.90;;;;;;5026508;28;20062;-60
2022/12/05 07:55:57;;;;;;;28.95;13.82;;;5.10;99.90;;;;;;5025671;28;20026;-58
2022/12/05 07:58:22;;;;;;;34.97;14.25;;;5.00;99.90;;;;;;5025183;28;20033;-57
2022/12/05 08:00:48;;;;;;;31.08;13.60;;;5.10;99.90;;;;;;5023818;28;20111;-59
2022/12/05 08:03:13;;;;;;;36.63;15.35;;;5.10;99.90;;;;;;5024583;28;20053;-57
2022/12/05 08:05:39;;;;;;;31.70;13.88;;;5.10;99.90;;;;;;5023863;28;20033;-57
2022/12/05 08:08:05;;;;;;;27.25;13.18;;;5.10;99.90;;;;;;5025427;28;20475;-58
2022/12/05 08:10:30;;;;;;;26.63;12.75;;;5.00;99.90;;;;;;5026427;28;20625;-59
2022/12/05 08:12:56;;;;;;;33.78;13.82;;;5.00;99.90;;;;;;5024916;28;20048;-59
2022/12/05 08:15:22;;;;;;;26.95;12.48;;;5.10;99.90;;;;;;5024887;28;20223;-59
2022/12/05 08:17:47;;;;;;;24.65;13.40;;;5.00;99.90;;;;;;5025215;28;20117;-58
2022/12/05 08:20:13;;;;;;;30.08;12.80;;;5.10;99.90;;;;;;5022559;28;20100;-58
2022/12/05 08:22:38;;;;;;;24.25;12.13;;;5.00;99.90;;;;;;5026144;28;20033;-58
2022/12/05 08:25:04;;;;;;;29.13;12.80;;;5.10;99.90;;;;;;5025099;28;20077;-58
2022/12/05 08:27:30;;;;;;;28.95;13.57;;;5.10;99.90;;;;;;5026200;28;20114;-58
2022/12/05 08:29:56;;;;;;;24.00;12.02;;;5.10;99.90;;;;;;5025258;28;20044;-58
2022/12/05 08:32:22;;;;;;;24.75;11.90;;;5.00;99.90;;;;;;5024099;28;20037;-58
2022/12/05 08:34:47;;;;;;;23.42;11.77;;;5.10;99.90;;;;;;5025106;28;20045;-58
2022/12/05 08:37:13;;;;;;;25.35;12.32;;;5.00;99.90;;;;;;5024839;28;20029;-58
2022/12/05 08:39:38;;;;;;;22.15;11.50;;;5.10;99.90;;;;;;5025168;28;20163;-58
2022/12/05 08:42:04;;;;;;;23.00;11.35;;;5.10;99.90;;;;;;5019725;28;20117;-58
2022/12/05 08:44:29;;;;;;;20.17;11.32;;;5.00;99.90;;;;;;5025349;28;20048;-58
2022/12/05 08:46:55;;;;;;;24.63;12.50;;;5.00;99.90;;;;;;5024016;28;20484;-56
2022/12/05 08:49:20;;;;;;;23.77;11.25;;;5.10;99.90;;;;;;5025408;28;20047;-59
2022/12/05 08:51:46;;;;;;;25.20;11.35;;;5.10;99.90;;;;;;5005052;28;20045;-58
2022/12/05 08:54:12;;;;;;;24.50;11.75;;;5.00;99.90;;;;;;5024524;28;20087;-58
2022/12/05 08:56:38;;;;;;;24.67;12.35;;;5.10;99.90;;;;;;5025301;28;20221;-58
2022/12/05 08:59:04;;;;;;;21.98;11.85;;;5.00;99.90;;;;;;5040157;28;20048;-59
2022/12/05 09:01:31;;;;;;;22.13;11.65;;;5.10;99.90;;;;;;5040166;28;20045;-58
2022/12/05 09:03:59;;;;;;;24.80;12.52;;;5.10;99.90;;;;;;5025071;28;20116;-59
2022/12/05 09:06:26;;;;;;;23.42;13.07;;;5.10;99.90;;;;;;5023962;28;20511;-58
2022/12/05 09:08:57;;;;;;;24.48;13.05;;;5.10;99.90;;;;;;5024186;28;20409;-58
2022/12/05 09:11:28;;;;;;;24.90;13.85;;;5.00;99.90;;;;;;5022218;28;20469;-58
2022/12/05 09:13:55;;;;;;;23.85;13.38;;;5.10;99.90;;;;;;5039841;28;20037;-58
2022/12/05 09:16:28;;;;;;;23.23;13.25;;;5.10;99.90;;;;;;5023704;28;20733;-58
2022/12/05 09:18:53;;;;;;;29.80;12.60;;;5.00;99.90;;;;;;5024245;28;20095;-58
2022/12/05 09:21:22;;;;;;;22.25;11.98;;;5.10;99.90;;;;;;5023239;28;20571;-58
2022/12/05 09:23:48;;;;;;;24.73;13.32;;;5.10;99.90;;;;;;5024694;28;20480;-58
2022/12/05 09:26:16;;;;;;;22.98;12.13;;;5.10;99.90;;;;;;5024654;28;20236;-60
2022/12/05 09:28:43;;;;;;;24.08;12.70;;;5.10;99.90;;;;;;5024293;28;20045;-60
2022/12/05 09:31:13;;;;;;;22.92;12.07;;;5.10;99.90;;;;;;5024172;28;20037;-58
2022/12/05 09:33:39;;;;;;;27.38;11.95;;;5.10;99.90;;;;;;5021553;28;20038;-56
2022/12/05 09:36:12;;;;;;;27.63;12.73;;;5.10;99.90;;;;;;5023481;28;20037;-57
2022/12/05 09:38:38;;;;;;;25.25;12.02;;;5.10;99.90;;;;;;5024394;28;20049;-58
2022/12/05 09:41:07;;;;;;;26.05;12.45;;;5.10;99.90;;;;;;5022923;28;20113;-58
2022/12/05 09:43:56;;;;;;;19.65;11.07;;;5.10;99.90;;;;;;5024951;28;20056;-57
2022/12/05 09:46:27;;;;;;;23.15;12.32;;;5.10;99.90;;;;;;5024026;28;20045;-58
2022/12/05 09:48:54;;;;;;;19.00;10.52;;;5.10;99.90;;;;;;5016912;28;20049;-56
2022/12/05 09:51:20;;;;;;;25.02;11.30;;;5.10;99.90;;;;;;5015542;28;20045;-58
2022/12/05 09:53:46;;;;;;;25.23;12.82;;;5.10;99.90;;;;;;5023776;28;20107;-57
2022/12/05 09:56:24;;;;;;;26.85;12.35;;;5.10;99.90;;;;;;5023179;28;20037;-60
2022/12/05 09:58:52;;;;;;;23.45;12.43;;;5.10;99.90;;;;;;5023958;28;20038;-58
2022/12/05 10:01:25;;;;;;;24.08;12.50;;;5.10;99.90;;;;;;5023089;28;20131;-60
2022/12/05 10:03:59;;;;;;;23.88;11.73;;;5.00;99.90;;;;;;5019858;28;20596;-59
2022/12/05 10:06:33;;;;;;;22.23;12.02;;;5.00;99.90;;;;;;5022735;28;20142;-60
2022/12/05 10:09:30;;;;;;;25.42;12.23;;;5.00;99.90;;;;;;5020666;28;20041;-59
2022/12/05 10:12:40;;;;;;;25.45;12.90;;;5.00;99.90;;;;;;5023829;28;20037;-58
2022/12/05 10:15:36;;;;;;;22.85;12.68;;;5.00;99.90;;;;;;5004389;28;20088;-58
2022/12/05 10:18:13;;;;;;;23.80;12.07;;;5.00;99.90;;;;;;5002701;28;20042;-57
2022/12/05 10:20:48;;;;;;;22.13;12.15;;;5.10;99.90;;;;;;5001942;28;20497;-57
2022/12/05 10:23:32;;;;;;;22.88;10.38;;;5.00;99.90;;;;;;5003815;28;20119;-57
2022/12/05 10:26:03;;;;;;;19.67;10.80;;;5.00;99.90;;;;;;5003056;28;20048;-57
2022/12/05 10:28:54;;;;;;;20.75;11.35;;;5.00;99.90;;;;;;5005366;28;20300;-58
2022/12/05 10:31:25;;;;;;;18.60;10.15;;;5.10;99.90;;;;;;5003936;28;20539;-57
2022/12/05 10:34:00;;;;;;;17.77;9.98;;;5.10;99.90;;;;;;5016447;28;20053;-59
2022/12/05 10:36:25;;;;;;;;;;;5.10;99.90;;;;;;5003051;28;20073;-58
2022/12/05 10:38:51;;;;;;;18.98;9.70;;;5.10;99.90;;;;;;5001909;28;20067;-58
2022/12/05 10:41:17;;;;;;;21.27;9.65;;;5.20;99.90;;;;;;5001050;28;20045;-58
2022/12/05 10:43:44;;;;;;;23.15;9.30;;;5.10;99.90;;;;;;4999540;28;20061;-58
2022/12/05 10:46:12;;;;;;;20.02;9.10;;;5.20;99.90;;;;;;5002015;28;20107;-59
2022/12/05 10:48:40;;;;;;;18.38;8.98;;;5.20;99.90;;;;;;5002236;28;20045;-58
2022/12/05 10:51:10;;;;;;;16.52;9.18;;;5.20;99.90;;;;;;5003182;28;20428;-59
2022/12/05 10:53:41;;;;;;;17.88;9.20;;;5.20;99.90;;;;;;5011560;28;20068;-59
2022/12/05 10:56:57;;;;;;;20.35;10.05;;;5.20;99.90;;;;;;5023267;28;20034;-57
2022/12/05 10:59:43;;;;;;;19.23;10.23;;;5.20;99.90;;;;;;5013686;28;20057;-57
2022/12/05 11:02:21;;;;;;;15.40;8.73;;;5.10;99.90;;;;;;5021538;28;20045;-59
2022/12/05 11:04:46;;;;;;;21.98;10.90;;;5.20;99.90;;;;;;5023226;28;20049;-59
2022/12/05 11:07:33;;;;;;;17.77;10.02;;;5.10;99.90;;;;;;5022715;28;20305;-59
2022/12/05 11:10:01;;;;;;;22.23;10.85;;;5.10;99.90;;;;;;5018634;28;20613;-60
2022/12/05 11:12:32;;;;;;;20.00;11.13;;;5.10;99.90;;;;;;5022960;28;20040;-58
2022/12/05 11:15:04;;;;;;;18.95;10.95;;;5.10;99.90;;;;;;5023702;28;20123;-60
2022/12/05 11:17:33;;;;;;;26.00;12.15;;;5.10;99.90;;;;;;5026449;28;20041;-57
2022/12/05 11:19:59;;;;;;;24.77;12.43;;;5.10;99.90;;;;;;5025203;28;20678;-59
2022/12/05 11:22:33;;;;;;;27.95;12.63;;;5.10;99.90;;;;;;5026394;28;20057;-59
2022/12/05 11:24:59;;;;;;;29.88;14.38;;;5.10;99.90;;;;;;5026199;28;20591;-59
2022/12/05 11:27:30;;;;;;;29.40;14.25;;;5.10;99.90;;;;;;5022046;28;20175;-58
2022/12/05 11:30:02;;;;;;;29.30;14.50;;;5.10;99.90;;;;;;5026427;28;20046;-58
2022/12/05 11:32:31;;;;;;;32.15;14.73;;;5.10;99.90;;;;;;5025825;28;20045;-59
2022/12/05 11:35:05;;;;;;;31.02;14.05;;;5.10;99.90;;;;;;5021469;28;20045;-60
2022/12/05 11:37:54;;;;;;;26.73;12.15;;;5.10;99.90;;;;;;5025269;28;20039;-58
2022/12/05 11:40:42;;;;;;;33.63;14.13;;;5.10;99.90;;;;;;5025412;28;20042;-59
2022/12/05 11:43:24;;;;;;;29.67;13.73;;;5.10;99.90;;;;;;5026407;28;20045;-57
2022/12/05 11:46:12;;;;;;;32.13;15.02;;;5.10;99.90;;;;;;5008243;28;20049;-58
2022/12/05 11:49:01;;;;;;;28.25;13.60;;;5.10;99.90;;;;;;5005020;28;20527;-60
2022/12/05 11:51:35;;;;;;;30.08;13.75;;;5.00;99.90;;;;;;5003115;28;20065;-58
2022/12/05 11:54:28;;;;;;;28.17;13.57;;;5.10;99.90;;;;;;5005198;28;20110;-57
2022/12/05 11:56:59;;;;;;;21.38;11.43;;;5.10;99.90;;;;;;5004358;28;20054;-59
2022/12/05 11:59:50;;;;;;;23.77;12.25;;;5.00;99.90;;;;;;5004534;28;20748;-59
2022/12/05 12:02:47;;;;;;;24.48;12.02;;;5.00;99.90;;;;;;5007548;28;20049;-59
2022/12/05 12:05:28;;;;;;;29.73;12.18;;;5.00;99.90;;;;;;5003131;28;20056;-59
2022/12/05 12:08:11;;;;;;;26.42;11.98;;;5.00;99.90;;;;;;5008481;28;20045;-60
2022/12/05 12:10:47;;;;;;;23.45;10.88;;;5.10;99.90;;;;;;5002359;28;20114;-60
2022/12/05 12:13:21;;;;;;;27.67;12.00;;;5.00;99.90;;;;;;5006061;28;20476;-59
2022/12/05 12:15:59;;;;;;;;;;;5.00;99.90;;;;;;5001942;28;20124;-59
2022/12/05 12:18:39;;;;;;;22.38;11.15;;;5.00;99.90;;;;;;5005844;28;20599;-58
2022/12/05 12:21:22;;;;;;;21.30;11.25;;;5.00;99.90;;;;;;5005539;28;20037;-58
2022/12/05 12:24:15;;;;;;;23.55;11.00;;;5.00;99.90;;;;;;5005775;28;20056;-59
2022/12/05 12:27:02;;;;;;;23.75;12.07;;;5.10;99.90;;;;;;4999399;28;20052;-59
2022/12/05 12:29:40;;;;;;;26.05;11.73;;;5.10;99.90;;;;;;5002887;28;20138;-58
2022/12/05 12:32:29;;;;;;;23.77;11.52;;;5.10;99.90;;;;;;5004348;28;20051;-57
2022/12/05 12:34:55;;;;;;;23.35;11.98;;;5.10;99.90;;;;;;5000108;28;20348;-59
2022/12/05 12:37:45;;;;;;;22.45;10.27;;;5.10;99.90;;;;;;5004860;28;20046;-59
2022/12/05 12:40:23;;;;;;;20.98;9.80;;;5.10;99.90;;;;;;5004217;28;20045;-58
2022/12/05 12:43:01;;;;;;;24.48;10.25;;;5.10;99.90;;;;;;5002491;28;20038;-59
2022/12/05 12:45:38;;;;;;;21.13;9.98;;;5.10;99.90;;;;;;5002081;28;20720;-58
2022/12/05 12:48:21;;;;;;;25.33;11.18;;;5.10;99.90;;;;;;5025996;28;20090;-59
2022/12/05 12:50:52;;;;;;;21.50;8.88;;;5.10;99.90;;;;;;5025570;28;20416;-59
2022/12/05 12:53:17;;;;;;;21.88;9.27;;;5.10;99.90;;;;;;5026127;28;20057;-59
2022/12/05 12:55:59;;;;;;;24.92;10.23;;;5.10;99.90;;;;;;5026151;28;20060;-60
2022/12/05 12:58:45;;;;;;;22.27;9.82;;;5.00;99.90;;;;;;5038807;28;20046;-59
2022/12/05 13:01:34;;;;;;;20.10;8.85;;;5.10;99.90;;;;;;5025301;28;20049;-59
2022/12/05 13:04:11;;;;;;;22.08;9.73;;;5.10;99.90;;;;;;5025750;28;20033;-59